Startpagina
METAR-TAF:

METAR-TAF

Vliegvelden :

Luchthaven Ivato

Antananarivo, Madagaskar

breedte: 18-48S, lengte: 047-29E, hoogte: 1279 m

Actueel weer

Dit bericht is 40 minuten geleden gemaakt, om 10:00 UTC
Wind 13 kt uit het zuidoosten, variërend tussen het oostzuidoosten en het zuiden
Temperatuur 21°C
Vochtigheid 56%
Druk 1024 hPa
Zicht 10 km of meer
Gebroken wolken op 2300 ft

METAR: FMMI 301000Z 14013KT 110V170 9999 BKN023 21/12 Q1024 NOSIG

Tijdstip: 13:40 (10:40 UTC)

Verwachting

Dit bericht is 5 uur en het 40 minuten geleden gemaakt, om 05:00 UTC
Verwachting geldig van 30 om 06 UTC tot 31 om 12 UTC
Wind 12 kt uit het oostzuidoosten met uitschieters tot 25 kt
Zicht 10 km of meer
Weinig wolken op 1000 ft
Gebroken wolken op 2000 ft

TAF: FMMI 300500Z 3006/3112 12012G25KT 9999 FEW010 BKN020

Waarnemingen en weersverwachtingen van meer dan 4000 vliegvelden (METAR en TAF).

De beschikbare stations zijn de gele en rode punten op de kaart.

Ga met uw muis naar het station om de naam te zien.

Klik dan om waarnemingen en weersverwachtingen te zien.

kaart wijzigen: klik op de groene knoppen met een zwart kruis om in te zoomen, op de groene knop met een streepje om uit te zoomen of op de groene pijlen voor aangrenzende kaarten.


METAR-TAF: